BAW23S EHAM-EGLL
Flight info
| Callsign | BAW23S |
|---|---|
| Flight time | N/A |
| Altitude | 24000 |
| Route | IDRID L980 LOGAN |
| Aircraft | A320/M-SDE3FGHIRWY/LB1 |
Departure
| Time | 2026-05-01 14:57 |
|---|---|
| Airport | Amsterdam Airport Schiphol (EHAM) |
Arrival
| Time | N/A |
|---|---|
| Airport | London Heathrow Airport (EGLL) |
| Time | Latitude | Longitude | Altitude | Speed | Heading |
|---|---|---|---|---|---|
| 2026-05-01 14:19 | 52.30718 | 4.77026 | -2 ft | 0 kts | 3° |
| 2026-05-01 14:38 | 52.30717 | 4.77026 | -2 ft | 1 kts | 3° |
| 2026-05-01 14:38 | 52.30695 | 4.77024 | -2 ft | 2 kts | 355° |
| 2026-05-01 14:39 | 52.30676 | 4.77029 | -2 ft | 3 kts | 317° |
| 2026-05-01 14:39 | 52.30663 | 4.77055 | -2 ft | 3 kts | 302° |
| 2026-05-01 14:39 | 52.30661 | 4.77060 | -2 ft | 0 kts | 303° |
| 2026-05-01 14:44 | 52.30662 | 4.77058 | -2 ft | 1 kts | 303° |
| 2026-05-01 14:44 | 52.30663 | 4.77054 | -2 ft | 0 kts | 303° |
| 2026-05-01 14:45 | 52.30665 | 4.77050 | -2 ft | 0 kts | 303° |
| 2026-05-01 14:45 | 52.30666 | 4.77048 | -2 ft | 0 kts | 303° |
| 2026-05-01 14:46 | 52.30667 | 4.77045 | -2 ft | 0 kts | 302° |
| 2026-05-01 14:50 | 52.30665 | 4.77039 | -2 ft | 0 kts | 265° |
| 2026-05-01 14:50 | 52.30659 | 4.77036 | -2 ft | 1 kts | 204° |
| 2026-05-01 14:51 | 52.30642 | 4.77026 | -2 ft | 4 kts | 198° |
| 2026-05-01 14:51 | 52.30551 | 4.77088 | -2 ft | 11 kts | 149° |
| 2026-05-01 14:52 | 52.30482 | 4.77244 | -3 ft | 12 kts | 67° |
| 2026-05-01 14:52 | 52.30526 | 4.77377 | -3 ft | 15 kts | 57° |
| 2026-05-01 14:52 | 52.30641 | 4.77538 | -2 ft | 8 kts | 51° |
| 2026-05-01 14:53 | 52.30698 | 4.77587 | -2 ft | 11 kts | 9° |
| 2026-05-01 14:53 | 52.30783 | 4.77599 | -2 ft | 14 kts | 4° |
| 2026-05-01 14:53 | 52.30887 | 4.77608 | -2 ft | 16 kts | 3° |
| 2026-05-01 14:53 | 52.31009 | 4.77620 | -2 ft | 19 kts | 4° |
| 2026-05-01 14:54 | 52.31150 | 4.77632 | -2 ft | 22 kts | 3° |
| 2026-05-01 14:54 | 52.31311 | 4.77647 | -2 ft | 25 kts | 4° |
| 2026-05-01 14:54 | 52.31462 | 4.77616 | -2 ft | 21 kts | 329° |
| 2026-05-01 14:54 | 52.31572 | 4.77586 | -2 ft | 17 kts | 45° |
| 2026-05-01 14:55 | 52.31594 | 4.77786 | -2 ft | 19 kts | 86° |
| 2026-05-01 14:55 | 52.31599 | 4.77923 | 1 ft | 1 kts | 86° |
| 2026-05-01 14:55 | 52.31597 | 4.77951 | 1 ft | 3 kts | 110° |
| 2026-05-01 14:55 | 52.31579 | 4.77964 | 3 ft | 3 kts | 176° |
| 2026-05-01 14:56 | 52.31547 | 4.77964 | 3 ft | 14 kts | 179° |
| 2026-05-01 14:56 | 52.31173 | 4.77933 | -4 ft | 91 kts | 182° |
| 2026-05-01 14:56 | 52.30338 | 4.77853 | 2 ft | 146 kts | 184° |
| 2026-05-01 14:56 | 52.29209 | 4.77759 | 328 ft | 166 kts | 181° |
| 2026-05-01 14:57 | 52.28057 | 4.77637 | 1049 ft | 168 kts | 175° |
| 2026-05-01 14:57 | 52.25751 | 4.78690 | 2493 ft | 178 kts | 158° |
| 2026-05-01 14:57 | 52.24536 | 4.79081 | 3183 ft | 185 kts | 188° |
| 2026-05-01 14:58 | 52.23398 | 4.77980 | 3747 ft | 205 kts | 230° |
| 2026-05-01 14:58 | 52.22822 | 4.75722 | 4294 ft | 231 kts | 253° |
| 2026-05-01 14:58 | 52.22459 | 4.73048 | 4742 ft | 259 kts | 252° |
| 2026-05-01 14:58 | 52.21964 | 4.70101 | 5420 ft | 275 kts | 250° |
| 2026-05-01 14:59 | 52.21395 | 4.67103 | 6356 ft | 279 kts | 249° |
| 2026-05-01 14:59 | 52.20836 | 4.64067 | 7350 ft | 280 kts | 251° |
| 2026-05-01 14:59 | 52.20340 | 4.60989 | 8336 ft | 281 kts | 252° |
| 2026-05-01 14:59 | 52.19867 | 4.57891 | 9327 ft | 282 kts | 252° |
| 2026-05-01 15:00 | 52.18821 | 4.51709 | 11045 ft | 289 kts | 250° |
| 2026-05-01 15:00 | 52.18261 | 4.48466 | 11453 ft | 309 kts | 250° |
| 2026-05-01 15:00 | 52.17652 | 4.44973 | 11686 ft | 332 kts | 250° |
| 2026-05-01 15:01 | 52.17022 | 4.41339 | 12203 ft | 343 kts | 250° |
| 2026-05-01 15:01 | 52.16374 | 4.37557 | 12921 ft | 348 kts | 251° |
| 2026-05-01 15:01 | 52.15726 | 4.33746 | 13647 ft | 353 kts | 251° |
| 2026-05-01 15:01 | 52.15068 | 4.29871 | 14330 ft | 357 kts | 251° |
| 2026-05-01 15:02 | 52.14400 | 4.25948 | 14983 ft | 361 kts | 251° |
| 2026-05-01 15:02 | 52.13956 | 4.23339 | 15414 ft | 363 kts | 251° |
| 2026-05-01 15:02 | 52.13047 | 4.18012 | 16272 ft | 368 kts | 251° |
| 2026-05-01 15:02 | 52.12356 | 4.13984 | 16914 ft | 371 kts | 251° |
| 2026-05-01 15:03 | 52.11661 | 4.09978 | 17554 ft | 374 kts | 251° |
| 2026-05-01 15:03 | 52.10950 | 4.05886 | 18210 ft | 378 kts | 251° |
| 2026-05-01 15:03 | 52.10232 | 4.01751 | 18823 ft | 382 kts | 251° |
| 2026-05-01 15:03 | 52.09505 | 3.97578 | 19421 ft | 385 kts | 251° |
| 2026-05-01 15:04 | 52.08771 | 3.93371 | 20017 ft | 389 kts | 251° |
| 2026-05-01 15:04 | 52.08028 | 3.89126 | 20673 ft | 391 kts | 251° |
| 2026-05-01 15:04 | 52.07281 | 3.84857 | 21295 ft | 394 kts | 251° |
| 2026-05-01 15:04 | 52.06481 | 3.80580 | 21877 ft | 397 kts | 249° |
| 2026-05-01 15:05 | 52.05593 | 3.76324 | 22438 ft | 399 kts | 248° |
| 2026-05-01 15:05 | 52.04645 | 3.72063 | 22991 ft | 402 kts | 247° |
| 2026-05-01 15:05 | 52.03681 | 3.67843 | 23526 ft | 406 kts | 247° |
| 2026-05-01 15:05 | 52.02697 | 3.63527 | 24007 ft | 409 kts | 247° |
| 2026-05-01 15:06 | 52.01717 | 3.59190 | 24175 ft | 410 kts | 247° |
| 2026-05-01 15:06 | 52.00738 | 3.54797 | 24224 ft | 418 kts | 248° |
| 2026-05-01 15:06 | 51.99645 | 3.50417 | 24230 ft | 419 kts | 241° |
| 2026-05-01 15:06 | 51.98161 | 3.46361 | 24224 ft | 417 kts | 232° |
| 2026-05-01 15:07 | 51.96451 | 3.42556 | 24233 ft | 418 kts | 231° |
| 2026-05-01 15:07 | 51.94731 | 3.38760 | 24232 ft | 417 kts | 231° |
| 2026-05-01 15:07 | 51.93014 | 3.34981 | 24228 ft | 416 kts | 231° |
| 2026-05-01 15:07 | 51.91321 | 3.31263 | 24222 ft | 416 kts | 231° |
| 2026-05-01 15:08 | 51.89604 | 3.27494 | 24225 ft | 416 kts | 231° |
| 2026-05-01 15:08 | 51.87889 | 3.23728 | 24223 ft | 416 kts | 231° |
| 2026-05-01 15:08 | 51.86313 | 3.19792 | 24219 ft | 419 kts | 239° |
| 2026-05-01 15:08 | 51.85174 | 3.15443 | 24220 ft | 422 kts | 249° |
| 2026-05-01 15:09 | 51.84514 | 3.10797 | 24209 ft | 426 kts | 259° |
| 2026-05-01 15:09 | 51.84199 | 3.06026 | 24211 ft | 427 kts | 261° |
| 2026-05-01 15:09 | 51.83895 | 3.01246 | 24211 ft | 427 kts | 261° |
| 2026-05-01 15:09 | 51.83590 | 2.96533 | 24212 ft | 427 kts | 261° |
| 2026-05-01 15:10 | 51.83275 | 2.91757 | 24216 ft | 427 kts | 261° |
| 2026-05-01 15:10 | 51.82637 | 2.82208 | 24216 ft | 427 kts | 260° |
| 2026-05-01 15:10 | 51.82316 | 2.77432 | 24217 ft | 427 kts | 260° |
| 2026-05-01 15:11 | 51.81990 | 2.72656 | 24217 ft | 427 kts | 260° |
| 2026-05-01 15:11 | 51.81338 | 2.63122 | 24217 ft | 427 kts | 260° |
| 2026-05-01 15:11 | 51.81015 | 2.58414 | 24216 ft | 427 kts | 260° |
| 2026-05-01 15:12 | 51.80687 | 2.53652 | 24213 ft | 427 kts | 260° |
| 2026-05-01 15:12 | 51.80018 | 2.44117 | 24209 ft | 427 kts | 259° |
| 2026-05-01 15:12 | 51.79681 | 2.39361 | 24225 ft | 427 kts | 259° |
| 2026-05-01 15:13 | 51.78658 | 2.25091 | 24219 ft | 426 kts | 259° |
| 2026-05-01 15:14 | 51.78020 | 2.15652 | 24209 ft | 426 kts | 260° |
| 2026-05-01 15:14 | 51.77744 | 2.10884 | 24203 ft | 427 kts | 261° |
| 2026-05-01 15:14 | 51.77217 | 2.01346 | 24195 ft | 427 kts | 261° |
| 2026-05-01 15:15 | 51.76669 | 1.91804 | 24209 ft | 427 kts | 260° |
| 2026-05-01 15:15 | 51.76090 | 1.82336 | 24207 ft | 426 kts | 259° |
| 2026-05-01 15:16 | 51.75494 | 1.72824 | 24201 ft | 426 kts | 259° |
| 2026-05-01 15:16 | 51.74891 | 1.63319 | 24199 ft | 426 kts | 259° |
| 2026-05-01 15:17 | 51.74292 | 1.53860 | 23307 ft | 421 kts | 259° |
| 2026-05-01 15:18 | 51.73419 | 1.40115 | 21776 ft | 403 kts | 259° |
| 2026-05-01 15:18 | 51.73131 | 1.35645 | 21285 ft | 399 kts | 259° |
| 2026-05-01 15:19 | 51.72255 | 1.22516 | 19758 ft | 391 kts | 259° |
| 2026-05-01 15:19 | 51.71672 | 1.13845 | 18689 ft | 387 kts | 259° |
| 2026-05-01 15:19 | 51.71385 | 1.09549 | 18104 ft | 385 kts | 259° |
| 2026-05-01 15:20 | 51.70806 | 1.01052 | 16984 ft | 377 kts | 259° |
| 2026-05-01 15:20 | 51.70519 | 0.96878 | 16434 ft | 373 kts | 259° |
| 2026-05-01 15:20 | 51.70238 | 0.92794 | 15877 ft | 370 kts | 259° |
| 2026-05-01 15:21 | 51.69956 | 0.88702 | 15334 ft | 366 kts | 259° |
| 2026-05-01 15:21 | 51.69675 | 0.84639 | 14794 ft | 363 kts | 259° |
| 2026-05-01 15:21 | 51.69395 | 0.80623 | 14264 ft | 359 kts | 259° |
| 2026-05-01 15:21 | 51.69113 | 0.76643 | 13703 ft | 356 kts | 259° |
| 2026-05-01 15:22 | 51.68558 | 0.68810 | 12648 ft | 347 kts | 259° |
| 2026-05-01 15:22 | 51.68283 | 0.64962 | 12154 ft | 343 kts | 259° |
| 2026-05-01 15:22 | 51.68014 | 0.61201 | 11924 ft | 331 kts | 259° |
| 2026-05-01 15:23 | 51.67756 | 0.57593 | 11797 ft | 318 kts | 259° |
| 2026-05-01 15:23 | 51.67507 | 0.54118 | 11662 ft | 306 kts | 259° |
| 2026-05-01 15:23 | 51.67102 | 0.50785 | 10909 ft | 311 kts | 246° |
| 2026-05-01 15:23 | 51.66230 | 0.47572 | 10437 ft | 311 kts | 242° |
| 2026-05-01 15:24 | 51.65328 | 0.44482 | 10305 ft | 299 kts | 242° |
| 2026-05-01 15:24 | 51.64459 | 0.41514 | 10189 ft | 288 kts | 241° |
| 2026-05-01 15:24 | 51.63621 | 0.38654 | 10046 ft | 278 kts | 241° |
| 2026-05-01 15:24 | 51.62801 | 0.35855 | 9740 ft | 275 kts | 241° |
| 2026-05-01 15:25 | 51.61987 | 0.33085 | 9396 ft | 273 kts | 241° |
| 2026-05-01 15:25 | 51.61172 | 0.30336 | 9044 ft | 272 kts | 241° |
| 2026-05-01 15:25 | 51.60358 | 0.27607 | 8696 ft | 270 kts | 241° |
| 2026-05-01 15:25 | 51.59547 | 0.24889 | 8364 ft | 269 kts | 241° |
| 2026-05-01 15:26 | 51.58737 | 0.22187 | 8022 ft | 268 kts | 241° |
| 2026-05-01 15:26 | 51.57926 | 0.19496 | 7691 ft | 267 kts | 242° |
| 2026-05-01 15:26 | 51.57126 | 0.16860 | 7369 ft | 265 kts | 241° |
| 2026-05-01 15:26 | 51.56331 | 0.14203 | 7077 ft | 263 kts | 242° |
| 2026-05-01 15:27 | 51.55534 | 0.11570 | 6712 ft | 262 kts | 241° |
| 2026-05-01 15:27 | 51.54738 | 0.08942 | 6392 ft | 261 kts | 242° |
| 2026-05-01 15:27 | 51.53935 | 0.06333 | 6056 ft | 260 kts | 241° |
| 2026-05-01 15:28 | 51.52350 | 0.01169 | 5444 ft | 256 kts | 241° |
| 2026-05-01 15:28 | 51.51566 | -0.01397 | 5175 ft | 255 kts | 241° |
| 2026-05-01 15:28 | 51.50788 | -0.03964 | 4803 ft | 256 kts | 241° |
| 2026-05-01 15:29 | 51.49246 | -0.08992 | 4418 ft | 242 kts | 242° |
| 2026-05-01 15:29 | 51.48508 | -0.11367 | 4290 ft | 233 kts | 241° |
| 2026-05-01 15:29 | 51.47756 | -0.16344 | 3447 ft | 242 kts | 266° |
| 2026-05-01 15:30 | 51.47806 | -0.21346 | 2748 ft | 205 kts | 265° |
| 2026-05-01 15:31 | 51.47797 | -0.29053 | 1853 ft | 159 kts | 264° |
| 2026-05-01 15:31 | 51.47790 | -0.32546 | 1435 ft | 155 kts | 264° |
| 2026-05-01 15:32 | 51.47784 | -0.35973 | 1019 ft | 146 kts | 264° |
| 2026-05-01 15:32 | 51.47778 | -0.39034 | 665 ft | 133 kts | 265° |
| 2026-05-01 15:33 | 51.47769 | -0.43466 | 132 ft | 134 kts | 265° |
| 2026-05-01 15:34 | 51.47729 | -0.46127 | 90 ft | 8 kts | 201° |